createdAt,value
2023-05-04T00:02:09.664Z,97.67
2023-05-04T00:04:36.859Z,96.54
2023-05-04T00:07:04.096Z,96.36
2023-05-04T00:09:32.366Z,96.20
2023-05-04T00:12:00.216Z,97.43
2023-05-04T00:14:27.714Z,96.72
2023-05-04T00:16:55.032Z,95.67
2023-05-04T00:19:22.952Z,96.05
2023-05-04T00:21:50.479Z,95.19
2023-05-04T00:24:17.673Z,94.90
2023-05-04T00:26:46.045Z,95.05
2023-05-04T00:29:13.506Z,95.92
2023-05-04T00:31:41.155Z,95.70
2023-05-04T00:34:09.073Z,96.12
2023-05-04T00:36:36.667Z,95.33
2023-05-04T00:39:04.311Z,96.70
2023-05-04T00:41:31.562Z,96.93
2023-05-04T00:44:02.890Z,97.32
2023-05-04T00:46:31.383Z,100.00
2023-05-04T00:49:00.116Z,100.00
2023-05-04T00:51:27.428Z,100.00
2023-05-04T00:53:56.183Z,100.00
2023-05-04T00:56:25.166Z,100.00
2023-05-04T00:58:58.945Z,100.00
2023-05-04T01:01:27.559Z,100.00
2023-05-04T01:03:57.850Z,100.00
2023-05-04T01:07:06.373Z,100.00
2023-05-04T01:09:46.614Z,100.00
2023-05-04T01:12:23.795Z,100.00
2023-05-04T01:14:54.432Z,100.00
2023-05-04T01:17:22.525Z,100.00
2023-05-04T01:19:51.307Z,100.00
2023-05-04T01:22:18.538Z,100.00
2023-05-04T01:24:46.978Z,100.00
2023-05-04T01:27:28.605Z,100.00
2023-05-04T01:30:14.295Z,100.00
2023-05-04T01:32:45.931Z,100.00
2023-05-04T01:35:14.428Z,100.00
2023-05-04T01:37:42.183Z,100.00
2023-05-04T01:40:10.223Z,100.00
2023-05-04T01:42:38.023Z,100.00
2023-05-04T01:45:06.429Z,100.00
2023-05-04T01:47:33.923Z,100.00
2023-05-04T01:50:01.915Z,100.00
2023-05-04T01:52:31.011Z,100.00
2023-05-04T01:54:58.363Z,100.00
2023-05-04T01:57:26.061Z,100.00
2023-05-04T01:59:53.541Z,100.00
2023-05-04T02:02:21.173Z,100.00
2023-05-04T02:04:48.339Z,100.00
2023-05-04T02:07:15.693Z,100.00
2023-05-04T02:09:43.989Z,100.00
2023-05-04T02:12:11.422Z,100.00
2023-05-04T02:14:39.488Z,100.00
2023-05-04T02:17:07.975Z,100.00
2023-05-04T02:19:37.980Z,100.00
2023-05-04T02:22:05.922Z,100.00
2023-05-04T02:24:36.284Z,100.00
2023-05-04T02:27:03.729Z,100.00
2023-05-04T02:29:31.238Z,100.00
2023-05-04T02:31:59.858Z,100.00
2023-05-04T02:34:27.847Z,100.00
2023-05-04T02:36:55.214Z,100.00
2023-05-04T02:39:23.154Z,100.00
2023-05-04T02:41:50.988Z,100.00
2023-05-04T02:44:20.857Z,100.00
2023-05-04T02:46:48.425Z,100.00
2023-05-04T02:49:16.028Z,100.00
2023-05-04T02:51:43.398Z,100.00
2023-05-04T02:54:13.543Z,100.00
2023-05-04T02:56:45.431Z,100.00
2023-05-04T02:59:13.672Z,100.00
2023-05-04T03:01:41.122Z,100.00
2023-05-04T03:04:08.759Z,100.00
2023-05-04T03:06:36.658Z,100.00
2023-05-04T03:09:04.964Z,100.00
2023-05-04T03:11:32.533Z,100.00
2023-05-04T03:14:00.040Z,100.00
2023-05-04T03:16:28.379Z,100.00
2023-05-04T03:18:58.919Z,100.00
2023-05-04T03:21:26.832Z,100.00
2023-05-04T03:23:54.383Z,100.00
2023-05-04T03:26:21.827Z,100.00
2023-05-04T03:28:50.448Z,100.00
2023-05-04T03:31:18.023Z,100.00
2023-05-04T03:33:48.623Z,100.00
2023-05-04T03:36:16.419Z,100.00
2023-05-04T03:38:44.374Z,100.00
2023-05-04T03:41:11.723Z,100.00
2023-05-04T03:43:40.214Z,100.00
2023-05-04T03:46:07.543Z,100.00
2023-05-04T03:48:35.290Z,100.00
2023-05-04T03:51:03.350Z,100.00
2023-05-04T03:53:30.924Z,100.00
2023-05-04T03:55:58.225Z,100.00
2023-05-04T03:58:25.523Z,100.00
2023-05-04T04:00:53.507Z,100.00
2023-05-04T04:03:21.901Z,100.00
2023-05-04T04:05:51.187Z,100.00
2023-05-04T04:08:18.923Z,100.00
2023-05-04T04:10:46.858Z,100.00
2023-05-04T04:13:14.302Z,100.00
2023-05-04T04:15:45.225Z,100.00
2023-05-04T04:18:13.233Z,100.00
2023-05-04T04:20:40.792Z,100.00
2023-05-04T04:23:08.617Z,100.00
2023-05-04T04:25:37.045Z,100.00
2023-05-04T04:28:04.631Z,100.00
2023-05-04T04:30:35.303Z,100.00
2023-05-04T04:33:03.840Z,100.00
2023-05-04T04:35:33.364Z,100.00
2023-05-04T04:38:03.358Z,100.00
2023-05-04T04:40:31.802Z,100.00
2023-05-04T04:43:00.078Z,100.00
2023-05-04T04:45:28.486Z,100.00
2023-05-04T04:47:55.760Z,100.00
2023-05-04T04:50:23.495Z,100.00
2023-05-04T04:52:51.250Z,100.00
2023-05-04T04:55:19.204Z,100.00
2023-05-04T04:57:46.668Z,98.54
2023-05-04T05:00:15.079Z,98.87
2023-05-04T05:02:43.275Z,94.80
2023-05-04T05:05:11.576Z,92.50
2023-05-04T05:07:39.040Z,91.13
2023-05-04T05:12:37.002Z,86.82
2023-05-04T05:15:05.173Z,85.48
2023-05-04T05:17:32.613Z,83.90
2023-05-04T05:20:01.622Z,81.98
2023-05-04T05:22:29.194Z,76.73
2023-05-04T05:24:57.157Z,78.04
2023-05-04T05:27:25.021Z,73.78
2023-05-04T05:29:52.516Z,74.09
2023-05-04T05:32:20.346Z,74.91
2023-05-04T05:34:48.908Z,72.75
2023-05-04T05:37:16.655Z,68.91
2023-05-04T05:39:44.638Z,66.94
2023-05-04T05:42:13.028Z,63.44
2023-05-04T05:44:41.264Z,59.42
2023-05-04T05:47:09.838Z,58.59
2023-05-04T05:49:37.359Z,57.71
2023-05-04T05:52:05.135Z,56.84
2023-05-04T05:54:34.885Z,55.81
2023-05-04T05:57:02.890Z,55.06
2023-05-04T05:59:30.864Z,52.46
2023-05-04T06:01:58.284Z,52.22
2023-05-04T06:04:26.240Z,50.68
2023-05-04T06:06:53.661Z,50.49
2023-05-04T06:09:21.856Z,50.56
2023-05-04T06:11:49.152Z,52.35
2023-05-04T06:14:16.821Z,53.27
2023-05-04T06:16:44.615Z,52.70
2023-05-04T06:19:12.149Z,53.90
2023-05-04T06:21:39.517Z,53.80
2023-05-04T06:24:07.305Z,53.92
2023-05-04T06:26:34.715Z,52.17
2023-05-04T06:29:02.261Z,50.98
2023-05-04T06:31:29.540Z,49.99
2023-05-04T06:33:58.146Z,47.85
2023-05-04T06:36:26.272Z,47.78
2023-05-04T06:38:55.982Z,46.62
2023-05-04T06:41:23.455Z,44.08
2023-05-04T06:43:51.356Z,41.81
2023-05-04T06:46:18.864Z,42.83
2023-05-04T06:48:47.531Z,43.31
2023-05-04T06:51:16.389Z,43.24
2023-05-04T06:53:45.309Z,43.19
2023-05-04T06:56:13.802Z,44.31
2023-05-04T06:58:41.341Z,43.50
2023-05-04T07:01:11.778Z,41.65
2023-05-04T07:03:39.446Z,41.24
2023-05-04T07:06:08.380Z,40.58
2023-05-04T07:08:40.748Z,39.38
2023-05-04T07:11:09.703Z,40.46
2023-05-04T07:13:37.842Z,41.34
2023-05-04T07:16:07.936Z,41.40
2023-05-04T07:18:35.242Z,40.67
2023-05-04T07:21:21.738Z,38.75
2023-05-04T07:23:50.838Z,40.75
2023-05-04T07:26:18.748Z,38.99
2023-05-04T07:28:47.368Z,39.70
2023-05-04T07:31:16.252Z,39.17
2023-05-04T07:33:44.007Z,39.34
2023-05-04T07:36:12.271Z,40.02
2023-05-04T07:38:40.259Z,38.51
2023-05-04T07:41:07.662Z,38.79
2023-05-04T07:43:34.974Z,37.52
2023-05-04T07:46:03.793Z,38.15
2023-05-04T07:48:31.464Z,36.69
2023-05-04T07:50:59.707Z,34.89
2023-05-04T07:53:27.773Z,32.92
2023-05-04T07:55:57.703Z,31.30
2023-05-04T07:58:25.740Z,31.56
2023-05-04T08:00:53.858Z,29.57
2023-05-04T08:03:22.460Z,30.76
2023-05-04T08:05:50.162Z,29.97
2023-05-04T08:08:21.821Z,31.10
2023-05-04T08:10:49.660Z,30.85
2023-05-04T08:13:17.380Z,30.12
2023-05-04T08:15:46.131Z,30.18
2023-05-04T08:18:15.820Z,29.30
2023-05-04T08:20:44.057Z,29.56
2023-05-04T08:23:11.757Z,28.97
2023-05-04T08:25:39.574Z,27.01
2023-05-04T08:28:07.246Z,28.55
2023-05-04T08:30:35.115Z,28.20
2023-05-04T08:33:03.086Z,27.14
2023-05-04T08:35:31.132Z,25.87
2023-05-04T08:37:58.445Z,25.75
2023-05-04T08:40:26.216Z,25.14
2023-05-04T08:42:53.821Z,23.99
2023-05-04T08:45:23.156Z,24.49
2023-05-04T08:47:51.912Z,24.01
2023-05-04T08:50:19.909Z,23.69
2023-05-04T08:52:49.201Z,23.59
2023-05-04T08:55:18.073Z,23.18
2023-05-04T08:57:51.863Z,24.76
2023-05-04T09:00:20.630Z,25.52
2023-05-04T09:02:50.143Z,24.57
2023-05-04T09:05:18.752Z,23.77
2023-05-04T09:07:47.765Z,23.32
2023-05-04T09:10:15.245Z,24.40
2023-05-04T09:12:43.010Z,23.99
2023-05-04T09:15:21.756Z,25.08
2023-05-04T09:17:59.892Z,24.39
2023-05-04T09:20:27.738Z,24.41
2023-05-04T09:23:07.553Z,23.18
2023-05-04T09:25:47.978Z,20.95
2023-05-04T09:28:16.792Z,19.60
2023-05-04T09:30:45.037Z,20.76
2023-05-04T09:33:13.521Z,19.54
2023-05-04T09:35:41.823Z,20.10
2023-05-04T09:38:10.591Z,19.55
2023-05-04T09:40:44.420Z,19.52
2023-05-04T09:43:13.783Z,19.23
2023-05-04T09:45:42.753Z,18.41
2023-05-04T09:48:29.704Z,17.37
2023-05-04T09:50:59.815Z,16.24
2023-05-04T09:53:29.560Z,16.11
2023-05-04T09:56:13.940Z,17.25
2023-05-04T09:58:43.664Z,17.63
2023-05-04T10:01:12.268Z,18.42
2023-05-04T10:03:40.821Z,18.58
2023-05-04T10:06:12.483Z,19.34
2023-05-04T10:08:41.689Z,18.96
2023-05-04T10:11:10.064Z,20.83
2023-05-04T10:13:38.650Z,21.12
2023-05-04T10:16:30.094Z,21.11
2023-05-04T10:19:22.026Z,20.06
2023-05-04T10:22:13.990Z,20.66
2023-05-04T10:25:14.757Z,20.50
2023-05-04T10:28:11.814Z,21.12
2023-05-04T10:30:40.732Z,20.49
2023-05-04T10:33:09.239Z,21.94
2023-05-04T10:35:38.373Z,21.80
2023-05-04T10:38:06.805Z,22.62
2023-05-04T10:40:38.568Z,23.68
2023-05-04T10:43:08.440Z,23.96
2023-05-04T10:45:42.428Z,24.27
2023-05-04T10:48:10.722Z,24.73
2023-05-04T10:50:51.291Z,24.15
2023-05-04T10:53:19.692Z,25.53
2023-05-04T10:55:49.071Z,25.08
2023-05-04T10:58:28.725Z,24.30
2023-05-04T11:00:56.781Z,24.78
2023-05-04T11:03:25.418Z,25.45
2023-05-04T11:05:55.137Z,25.44
2023-05-04T11:08:26.859Z,25.08
2023-05-04T11:11:03.340Z,24.16
2023-05-04T11:13:32.574Z,23.54
2023-05-04T11:16:00.826Z,22.55
2023-05-04T11:18:34.628Z,22.20
2023-05-04T11:21:03.013Z,21.66
2023-05-04T11:23:31.629Z,21.29
2023-05-04T11:25:59.645Z,21.88
2023-05-04T11:28:37.381Z,22.02
2023-05-04T11:31:19.048Z,22.25
2023-05-04T11:33:50.566Z,22.11
2023-05-04T11:36:18.763Z,22.41
2023-05-04T11:38:47.382Z,22.46
2023-05-04T11:41:15.351Z,22.74
2023-05-04T11:43:45.634Z,23.15
2023-05-04T11:46:14.575Z,23.75
2023-05-04T11:48:42.513Z,25.22
2023-05-04T11:51:10.277Z,25.54
2023-05-04T11:53:39.672Z,26.64
2023-05-04T11:56:09.361Z,28.29
2023-05-04T11:58:37.521Z,28.88
2023-05-04T12:01:05.501Z,29.60
2023-05-04T12:03:52.099Z,29.84
2023-05-04T12:06:32.742Z,30.10
2023-05-04T12:09:06.461Z,31.14
2023-05-04T12:11:35.443Z,31.37
2023-05-04T12:14:11.966Z,32.10
2023-05-04T12:16:40.436Z,32.34
2023-05-04T12:19:13.948Z,33.18
2023-05-04T12:21:54.944Z,33.91
2023-05-04T12:24:24.225Z,34.69
2023-05-04T12:26:52.440Z,34.79
2023-05-04T12:29:20.362Z,35.17
2023-05-04T12:31:47.953Z,35.51
2023-05-04T12:34:16.924Z,35.91
2023-05-04T12:36:44.860Z,36.62
2023-05-04T12:39:12.579Z,36.74
2023-05-04T12:41:40.737Z,37.01
2023-05-04T12:44:09.383Z,38.43
2023-05-04T12:46:37.723Z,37.97
2023-05-04T12:49:06.328Z,38.66
2023-05-04T12:51:33.919Z,39.00
2023-05-04T12:54:01.310Z,39.46
2023-05-04T12:56:29.001Z,39.23
2023-05-04T12:58:56.978Z,40.35
2023-05-04T13:01:24.453Z,40.72
2023-05-04T13:03:52.317Z,41.00
2023-05-04T13:06:20.374Z,41.27
2023-05-04T13:08:51.556Z,41.35
2023-05-04T13:11:20.351Z,41.79
2023-05-04T13:13:48.081Z,41.63
2023-05-04T13:16:15.549Z,41.00
2023-05-04T13:18:43.668Z,41.34
2023-05-04T13:21:11.762Z,41.22
2023-05-04T13:23:39.813Z,42.20
2023-05-04T13:26:07.374Z,41.67
2023-05-04T13:28:36.261Z,42.26
2023-05-04T13:31:10.000Z,43.10
2023-05-04T13:33:40.551Z,43.48
2023-05-04T13:36:08.072Z,44.15
2023-05-04T13:38:35.791Z,44.99
2023-05-04T13:41:03.232Z,45.15
2023-05-04T13:43:31.404Z,45.04
2023-05-04T13:46:03.763Z,45.48
2023-05-04T13:48:33.356Z,47.76
2023-05-04T13:51:04.440Z,47.07
2023-05-04T13:53:32.514Z,47.22
2023-05-04T13:55:59.638Z,47.76
2023-05-04T13:58:27.342Z,48.35
2023-05-04T14:00:56.604Z,48.36
2023-05-04T14:03:24.208Z,48.23
2023-05-04T14:05:53.030Z,48.78
2023-05-04T14:08:20.611Z,48.73
2023-05-04T14:10:48.389Z,49.15
2023-05-04T14:13:16.864Z,49.23
2023-05-04T14:15:48.207Z,49.11
2023-05-04T14:18:15.941Z,49.12
2023-05-04T14:20:43.626Z,49.42
2023-05-04T14:23:11.134Z,49.87
2023-05-04T14:25:38.970Z,50.71
2023-05-04T14:28:06.749Z,51.63
2023-05-04T14:30:34.630Z,51.64
2023-05-04T14:33:04.261Z,52.88
2023-05-04T14:35:31.977Z,54.61
2023-05-04T14:37:59.598Z,57.51
2023-05-04T14:40:27.236Z,58.96
2023-05-04T14:42:54.959Z,58.95
2023-05-04T14:45:22.964Z,59.15
2023-05-04T14:47:51.046Z,58.99
2023-05-04T14:50:18.788Z,59.96
2023-05-04T14:52:46.274Z,59.61
2023-05-04T14:55:13.779Z,59.66
2023-05-04T14:57:42.143Z,58.62
2023-05-04T15:00:11.818Z,58.06
2023-05-04T15:02:39.379Z,58.96
2023-05-04T15:05:07.515Z,60.37
2023-05-04T15:07:34.824Z,60.04
2023-05-04T15:10:02.623Z,61.36
2023-05-04T15:12:30.196Z,59.44
2023-05-04T15:14:57.467Z,60.23
2023-05-04T15:17:24.729Z,59.91
2023-05-04T15:19:52.340Z,60.39
2023-05-04T15:22:19.794Z,61.55
2023-05-04T15:24:47.478Z,60.70
2023-05-04T15:27:15.095Z,60.08
2023-05-04T15:29:42.261Z,60.53
2023-05-04T15:32:10.039Z,60.43
2023-05-04T15:34:37.830Z,60.60
2023-05-04T15:37:05.536Z,61.29
2023-05-04T15:39:33.221Z,60.85
2023-05-04T15:42:00.676Z,61.22
2023-05-04T15:44:28.778Z,62.93
2023-05-04T15:46:57.221Z,63.87
2023-05-04T15:49:25.097Z,64.53
2023-05-04T15:51:54.202Z,64.46
2023-05-04T15:54:21.941Z,64.43
2023-05-04T15:56:50.345Z,66.31
2023-05-04T15:59:18.574Z,67.41
2023-05-04T16:01:46.306Z,67.99
2023-05-04T16:04:15.106Z,67.63
2023-05-04T16:06:42.953Z,67.97
2023-05-04T16:09:10.663Z,69.25
2023-05-04T16:11:38.034Z,67.67
2023-05-04T16:14:05.730Z,68.37
2023-05-04T16:16:33.656Z,69.72
2023-05-04T16:19:01.650Z,69.80
2023-05-04T16:21:29.474Z,68.32
2023-05-04T16:23:58.565Z,68.92
2023-05-04T16:26:26.225Z,69.79
2023-05-04T16:28:54.935Z,69.72
2023-05-04T16:31:23.029Z,69.75
2023-05-04T16:33:50.630Z,69.69
2023-05-04T16:36:18.325Z,68.86
2023-05-04T16:38:45.674Z,68.89
2023-05-04T16:41:13.382Z,68.36
2023-05-04T16:43:41.080Z,70.64
2023-05-04T16:46:09.364Z,70.96
2023-05-04T16:48:38.282Z,70.52
2023-05-04T16:51:06.096Z,71.94
2023-05-04T16:53:33.606Z,70.70
2023-05-04T16:56:01.841Z,71.20
2023-05-04T16:58:29.269Z,70.39
2023-05-04T17:00:58.429Z,71.03
2023-05-04T17:03:25.889Z,70.52
2023-05-04T17:05:53.792Z,71.12
2023-05-04T17:08:21.372Z,72.75
2023-05-04T17:10:48.811Z,72.20
2023-05-04T17:13:16.392Z,71.75
2023-05-04T17:15:44.295Z,71.14
2023-05-04T17:18:11.943Z,70.35
2023-05-04T17:20:39.585Z,70.75
2023-05-04T17:23:07.156Z,71.26
2023-05-04T17:25:34.921Z,70.10
2023-05-04T17:28:02.504Z,70.96
2023-05-04T17:30:30.107Z,71.33
2023-05-04T17:32:57.883Z,72.19
2023-05-04T17:35:26.905Z,72.86
2023-05-04T17:37:58.003Z,72.85
2023-05-04T17:40:28.119Z,72.81
2023-05-04T17:42:58.862Z,72.68
2023-05-04T17:45:26.496Z,72.20
2023-05-04T17:47:54.372Z,72.29
2023-05-04T17:50:22.745Z,72.80
2023-05-04T17:52:54.513Z,72.57
2023-05-04T17:55:27.452Z,72.14
2023-05-04T17:57:55.038Z,71.58
2023-05-04T18:00:23.364Z,72.77
2023-05-04T18:02:51.350Z,73.71
2023-05-04T18:05:19.430Z,73.36
2023-05-04T18:07:47.104Z,72.99
2023-05-04T18:10:14.554Z,72.98
2023-05-04T18:12:41.964Z,73.95
2023-05-04T18:15:10.361Z,72.96
2023-05-04T18:17:41.161Z,73.21
2023-05-04T18:20:09.521Z,73.17
2023-05-04T18:22:37.249Z,72.88
2023-05-04T18:25:05.080Z,72.89
2023-05-04T18:27:34.024Z,72.76
2023-05-04T18:30:06.062Z,73.17
2023-05-04T18:32:33.965Z,73.48
2023-05-04T18:35:01.704Z,73.71
2023-05-04T18:37:33.055Z,73.99
2023-05-04T18:40:01.048Z,74.37
2023-05-04T18:42:28.985Z,75.26
2023-05-04T18:44:57.067Z,76.13
2023-05-04T18:47:25.238Z,77.43
2023-05-04T18:49:56.515Z,78.32
2023-05-04T18:52:24.136Z,78.21
2023-05-04T18:54:51.512Z,79.22
2023-05-04T18:57:19.368Z,78.71
2023-05-04T18:59:46.769Z,78.26
2023-05-04T19:02:14.214Z,78.42
2023-05-04T19:04:41.792Z,79.08
2023-05-04T19:07:10.132Z,79.30
2023-05-04T19:09:38.069Z,80.46
2023-05-04T19:12:05.795Z,81.39
2023-05-04T19:14:35.058Z,81.59
2023-05-04T19:17:02.674Z,81.85
2023-05-04T19:19:30.449Z,81.30
2023-05-04T19:21:58.900Z,82.48
2023-05-04T19:24:26.206Z,82.56
2023-05-04T19:26:54.445Z,82.36
2023-05-04T19:29:21.835Z,82.13
2023-05-04T19:31:49.649Z,82.26
2023-05-04T19:34:17.688Z,82.26
2023-05-04T19:36:45.478Z,81.64
2023-05-04T19:39:13.704Z,81.92
2023-05-04T19:41:41.377Z,81.29
2023-05-04T19:44:10.380Z,81.36
2023-05-04T19:46:38.621Z,81.20
2023-05-04T19:49:06.185Z,81.41
2023-05-04T19:51:34.160Z,80.23
2023-05-04T19:54:02.070Z,79.06
2023-05-04T19:56:32.790Z,78.26
2023-05-04T19:59:00.920Z,78.49
2023-05-04T20:01:28.450Z,77.27
2023-05-04T20:03:56.438Z,77.50
2023-05-04T20:06:24.040Z,77.00
2023-05-04T20:08:51.609Z,76.31
2023-05-04T20:11:18.950Z,75.75
2023-05-04T20:13:46.533Z,75.32
2023-05-04T20:16:14.155Z,74.45
2023-05-04T20:18:41.965Z,74.53
2023-05-04T20:21:09.571Z,76.22
2023-05-04T20:23:37.854Z,76.87
2023-05-04T20:26:06.125Z,76.79
2023-05-04T20:28:33.758Z,77.57
2023-05-04T20:31:01.569Z,77.19
2023-05-04T20:33:29.188Z,76.93
2023-05-04T20:35:56.689Z,78.06
2023-05-04T20:38:24.407Z,76.94
2023-05-04T20:40:52.746Z,76.62
2023-05-04T20:43:20.216Z,75.71
2023-05-04T20:45:48.099Z,76.14
2023-05-04T20:48:15.531Z,77.25
2023-05-04T20:50:43.199Z,79.21
2023-05-04T20:53:10.665Z,79.72
2023-05-04T20:55:40.716Z,79.18
2023-05-04T20:58:08.344Z,79.62
2023-05-04T21:00:36.600Z,79.38
2023-05-04T21:03:03.984Z,78.80
2023-05-04T21:05:31.721Z,78.83
2023-05-04T21:07:59.219Z,78.64
2023-05-04T21:10:26.870Z,79.10
2023-05-04T21:12:54.263Z,78.85
2023-05-04T21:15:21.835Z,78.96
2023-05-04T21:17:50.187Z,78.03
2023-05-04T21:20:18.099Z,77.46
2023-05-04T21:22:45.796Z,78.04
2023-05-04T21:25:13.376Z,77.91
2023-05-04T21:27:42.536Z,79.03
2023-05-04T21:30:11.534Z,79.61
2023-05-04T21:32:39.013Z,79.79
2023-05-04T21:35:07.070Z,79.58
2023-05-04T21:37:34.600Z,79.30
2023-05-04T21:40:02.407Z,79.18
2023-05-04T21:42:29.840Z,78.11
2023-05-04T21:44:58.016Z,77.57
2023-05-04T21:47:26.835Z,77.22
2023-05-04T21:49:54.746Z,76.56
2023-05-04T21:52:23.782Z,76.17
2023-05-04T21:54:51.562Z,76.00
2023-05-04T21:57:19.677Z,75.45
2023-05-04T21:59:50.107Z,74.98
2023-05-04T22:02:17.633Z,74.54
2023-05-04T22:04:45.251Z,74.68
2023-05-04T22:07:12.710Z,73.94
2023-05-04T22:09:40.947Z,75.50
2023-05-04T22:12:08.523Z,75.16
2023-05-04T22:14:35.860Z,74.96
2023-05-04T22:17:03.666Z,74.97
2023-05-04T22:19:31.425Z,75.53
2023-05-04T22:22:01.748Z,75.54
2023-05-04T22:24:29.825Z,75.98
2023-05-04T22:26:57.176Z,76.80
2023-05-04T22:29:24.572Z,77.06
2023-05-04T22:31:51.874Z,78.89
2023-05-04T22:34:19.005Z,79.29
2023-05-04T22:36:46.896Z,79.72
2023-05-04T22:39:14.821Z,79.30
2023-05-04T22:41:42.020Z,79.23
2023-05-04T22:44:09.230Z,78.84
2023-05-04T22:46:36.741Z,78.28
2023-05-04T22:49:04.770Z,78.61
2023-05-04T22:51:32.676Z,78.14
2023-05-04T22:53:59.865Z,78.32
2023-05-04T22:56:27.007Z,78.00
2023-05-04T22:58:54.121Z,79.01
2023-05-04T23:01:21.553Z,78.11
2023-05-04T23:03:49.194Z,78.07
2023-05-04T23:06:16.690Z,78.55
2023-05-04T23:08:45.583Z,78.95
2023-05-04T23:11:12.777Z,78.17
2023-05-04T23:13:39.937Z,78.10
2023-05-04T23:16:07.819Z,78.11
2023-05-04T23:21:15.132Z,79.29
2023-05-04T23:23:42.618Z,80.72
2023-05-04T23:26:11.761Z,80.06
2023-05-04T23:28:39.564Z,79.83
2023-05-04T23:31:07.818Z,81.03
2023-05-04T23:33:36.559Z,81.69
2023-05-04T23:36:05.267Z,79.96
2023-05-04T23:38:33.635Z,79.41
2023-05-04T23:41:05.605Z,79.51
2023-05-04T23:43:34.296Z,78.49
2023-05-04T23:46:04.044Z,78.61
2023-05-04T23:48:32.846Z,79.81
2023-05-04T23:51:07.038Z,79.05
2023-05-04T23:53:35.672Z,79.80
2023-05-04T23:56:05.094Z,79.37
2023-05-04T23:58:33.701Z,79.59
